createdAt,value
2018-08-20T00:01:21.598Z,50.42
2018-08-20T00:03:50.771Z,50.25
2018-08-20T00:06:19.684Z,49.95
2018-08-20T00:08:48.418Z,50.30
2018-08-20T00:11:17.186Z,51.07
2018-08-20T00:13:46.452Z,51.30
2018-08-20T00:16:15.746Z,51.53
2018-08-20T00:18:45.804Z,51.62
2018-08-20T00:21:14.425Z,51.33
2018-08-20T00:23:43.324Z,51.22
2018-08-20T00:26:12.664Z,51.36
2018-08-20T00:28:41.816Z,51.79
2018-08-20T00:31:10.478Z,51.49
2018-08-20T00:33:39.198Z,51.72
2018-08-20T00:36:07.856Z,52.05
2018-08-20T00:38:36.635Z,51.82
2018-08-20T00:41:05.366Z,51.68
2018-08-20T00:43:33.982Z,51.54
2018-08-20T00:46:02.640Z,51.55
2018-08-20T00:48:31.256Z,51.99
2018-08-20T00:50:59.889Z,51.88
2018-08-20T00:53:28.558Z,51.89
2018-08-20T00:55:57.234Z,52.31
2018-08-20T00:58:25.847Z,52.56
2018-08-20T01:00:54.480Z,52.47
2018-08-20T01:03:23.257Z,52.25
2018-08-20T01:05:51.985Z,52.62
2018-08-20T01:08:21.060Z,52.58
2018-08-20T01:10:49.812Z,52.57
2018-08-20T01:13:18.431Z,52.78
2018-08-20T01:15:49.312Z,52.98
2018-08-20T01:18:18.332Z,52.60
2018-08-20T01:20:46.952Z,52.68
2018-08-20T01:23:15.659Z,53.38
2018-08-20T01:25:44.281Z,53.35
2018-08-20T01:28:13.629Z,53.29
2018-08-20T01:30:42.207Z,52.86
2018-08-20T01:33:16.545Z,52.87
2018-08-20T01:35:45.167Z,52.84
2018-08-20T01:38:14.589Z,53.24
2018-08-20T01:40:43.497Z,52.53
2018-08-20T01:43:12.075Z,53.14
2018-08-20T01:45:40.860Z,52.94
2018-08-20T01:48:09.737Z,53.05
2018-08-20T01:50:38.406Z,52.94
2018-08-20T01:53:07.003Z,53.34
2018-08-20T01:55:35.645Z,53.11
2018-08-20T01:58:04.267Z,53.43
2018-08-20T02:00:32.896Z,53.09
2018-08-20T02:03:04.386Z,53.24
2018-08-20T02:05:33.961Z,53.36
2018-08-20T02:08:02.814Z,53.35
2018-08-20T02:10:32.561Z,52.99
2018-08-20T02:13:01.178Z,53.66
2018-08-20T02:15:29.923Z,53.89
2018-08-20T02:17:58.633Z,53.55
2018-08-20T02:20:27.268Z,53.58
2018-08-20T02:22:55.920Z,53.59
2018-08-20T02:25:24.804Z,53.93
2018-08-20T02:27:53.797Z,53.95
2018-08-20T02:30:22.387Z,53.87
2018-08-20T02:32:51.045Z,53.49
2018-08-20T02:35:19.751Z,53.60
2018-08-20T02:37:48.791Z,54.05
2018-08-20T02:40:18.303Z,54.06
2018-08-20T02:42:47.403Z,54.30
2018-08-20T02:45:17.793Z,54.25
2018-08-20T02:47:47.017Z,54.24
2018-08-20T02:50:16.204Z,54.37
2018-08-20T02:52:49.322Z,54.29
2018-08-20T02:55:17.979Z,54.69
2018-08-20T02:57:46.688Z,54.49
2018-08-20T03:00:15.496Z,54.18
2018-08-20T03:02:44.166Z,54.40
2018-08-20T03:05:13.362Z,54.01
2018-08-20T03:07:42.008Z,54.48
2018-08-20T03:10:13.146Z,54.59
2018-08-20T03:12:42.160Z,54.95
2018-08-20T03:15:11.510Z,55.26
2018-08-20T03:17:41.694Z,55.30
2018-08-20T03:20:11.128Z,55.32
2018-08-20T03:22:39.790Z,55.17
2018-08-20T03:25:08.928Z,55.74
2018-08-20T03:27:37.662Z,55.16
2018-08-20T03:30:07.409Z,54.81
2018-08-20T03:32:35.970Z,54.99
2018-08-20T03:35:05.649Z,55.53
2018-08-20T03:37:34.315Z,56.12
2018-08-20T03:40:03.058Z,56.32
2018-08-20T03:42:31.849Z,56.56
2018-08-20T03:45:00.477Z,56.35
2018-08-20T03:47:29.375Z,55.91
2018-08-20T03:49:59.030Z,56.71
2018-08-20T03:52:27.729Z,56.25
2018-08-20T03:54:56.320Z,56.20
2018-08-20T03:57:25.571Z,56.83
2018-08-20T03:59:54.943Z,56.42
2018-08-20T04:02:23.608Z,56.79
2018-08-20T04:04:52.192Z,57.45
2018-08-20T04:07:21.532Z,57.57
2018-08-20T04:09:50.169Z,57.69
2018-08-20T04:12:18.904Z,57.38
2018-08-20T04:14:48.184Z,57.50
2018-08-20T04:17:16.875Z,57.44
2018-08-20T04:19:45.588Z,57.81
2018-08-20T04:22:14.205Z,57.87
2018-08-20T04:24:42.792Z,57.68
2018-08-20T04:27:11.358Z,57.73
2018-08-20T04:29:39.997Z,57.83
2018-08-20T04:32:08.675Z,57.80
2018-08-20T04:34:37.288Z,58.29
2018-08-20T04:37:05.990Z,58.24
2018-08-20T04:39:34.594Z,58.29
2018-08-20T04:42:03.216Z,58.28
2018-08-20T04:44:31.838Z,58.32
2018-08-20T04:47:00.430Z,58.04
2018-08-20T04:49:29.846Z,58.43
2018-08-20T04:51:58.470Z,58.49
2018-08-20T04:54:27.411Z,58.16
2018-08-20T04:56:56.132Z,58.66
2018-08-20T04:59:24.721Z,58.62
2018-08-20T05:01:53.452Z,58.64
2018-08-20T05:04:22.089Z,58.11
2018-08-20T05:06:51.443Z,57.99
2018-08-20T05:09:20.107Z,58.19
2018-08-20T05:11:48.772Z,57.87
2018-08-20T05:14:17.414Z,57.55
2018-08-20T05:16:46.671Z,57.74
2018-08-20T05:19:15.421Z,58.03
2018-08-20T05:21:44.063Z,57.25
2018-08-20T05:24:12.700Z,57.72
2018-08-20T05:26:41.337Z,57.62
2018-08-20T05:29:09.994Z,57.10
2018-08-20T05:31:40.142Z,56.54
2018-08-20T05:34:08.869Z,57.03
2018-08-20T05:36:38.251Z,57.04
2018-08-20T05:39:08.717Z,56.11
2018-08-20T05:41:37.459Z,56.28
2018-08-20T05:44:06.174Z,55.59
2018-08-20T05:46:34.844Z,55.54
2018-08-20T05:49:03.538Z,54.01
2018-08-20T05:51:32.514Z,49.56
2018-08-20T05:54:01.313Z,46.75
2018-08-20T05:56:36.653Z,42.66
2018-08-20T05:59:05.345Z,40.66
2018-08-20T06:01:34.084Z,40.03
2018-08-20T06:04:02.877Z,38.24
2018-08-20T06:06:31.665Z,36.64
2018-08-20T06:09:00.397Z,35.15
2018-08-20T06:11:29.253Z,33.98
2018-08-20T06:13:57.926Z,33.91
2018-08-20T06:16:26.580Z,34.10
2018-08-20T06:18:55.280Z,32.25
2018-08-20T06:21:24.062Z,31.36
2018-08-20T06:23:52.688Z,31.10
2018-08-20T06:26:21.382Z,32.76
2018-08-20T06:28:50.139Z,32.24
2018-08-20T06:31:18.825Z,32.11
2018-08-20T06:33:47.443Z,31.62
2018-08-20T06:36:16.200Z,30.99
2018-08-20T06:38:44.951Z,31.12
2018-08-20T06:41:13.915Z,30.38
2018-08-20T06:43:42.574Z,30.30
2018-08-20T06:46:11.186Z,34.87
2018-08-20T06:48:39.976Z,38.59
2018-08-20T06:51:08.780Z,40.79
2018-08-20T06:53:37.364Z,42.67
2018-08-20T06:56:06.181Z,43.35
2018-08-20T06:58:34.907Z,43.71
2018-08-20T07:01:04.237Z,44.05
2018-08-20T07:03:33.547Z,44.90
2018-08-20T07:06:02.180Z,45.10
2018-08-20T07:08:31.596Z,45.93
2018-08-20T07:11:00.547Z,44.93
2018-08-20T07:13:34.254Z,46.30
2018-08-20T07:16:03.049Z,46.25
2018-08-20T07:18:31.683Z,46.73
2018-08-20T07:21:02.048Z,46.86
2018-08-20T07:23:31.472Z,47.44
2018-08-20T07:26:00.674Z,47.05
2018-08-20T07:28:29.337Z,47.35
2018-08-20T07:30:58.878Z,46.85
2018-08-20T07:33:27.846Z,47.23
2018-08-20T07:35:57.454Z,46.65
2018-08-20T07:38:26.669Z,45.87
2018-08-20T07:40:55.327Z,45.47
2018-08-20T07:43:24.069Z,45.23
2018-08-20T07:45:52.690Z,45.46
2018-08-20T07:48:21.454Z,44.69
2018-08-20T07:50:50.204Z,44.90
2018-08-20T07:53:18.953Z,44.60
2018-08-20T07:55:48.204Z,43.92
2018-08-20T07:58:17.015Z,44.26
2018-08-20T08:00:45.654Z,44.40
2018-08-20T08:03:14.339Z,43.87
2018-08-20T08:05:42.964Z,43.49
2018-08-20T08:08:11.942Z,43.05
2018-08-20T08:10:40.608Z,44.02
2018-08-20T08:13:09.360Z,44.23
2018-08-20T08:15:38.103Z,43.79
2018-08-20T08:18:07.085Z,43.77
2018-08-20T08:20:36.630Z,43.81
2018-08-20T08:23:09.959Z,43.06
2018-08-20T08:25:38.639Z,44.23
2018-08-20T08:28:07.245Z,43.75
2018-08-20T08:30:36.622Z,43.27
2018-08-20T08:33:05.376Z,42.99
2018-08-20T08:35:34.565Z,43.36
2018-08-20T08:38:03.299Z,42.52
2018-08-20T08:40:31.908Z,41.79
2018-08-20T08:43:00.684Z,41.22
2018-08-20T08:45:30.120Z,40.92
2018-08-20T08:47:58.782Z,41.69
2018-08-20T08:50:28.348Z,41.30
2018-08-20T08:52:57.135Z,40.81
2018-08-20T08:55:26.423Z,39.99
2018-08-20T08:57:54.993Z,40.85
2018-08-20T09:00:23.598Z,39.82
2018-08-20T09:02:52.413Z,40.85
2018-08-20T09:05:21.107Z,40.39
2018-08-20T09:07:49.767Z,40.63
2018-08-20T09:10:18.428Z,40.35
2018-08-20T09:12:47.094Z,40.07
2018-08-20T09:15:17.660Z,40.21
2018-08-20T09:17:46.429Z,38.58
2018-08-20T09:20:16.392Z,37.87
2018-08-20T09:22:45.101Z,39.21
2018-08-20T09:25:14.672Z,38.35
2018-08-20T09:27:44.846Z,38.47
2018-08-20T09:30:17.366Z,38.20
2018-08-20T09:32:47.018Z,38.45
2018-08-20T09:35:15.682Z,38.20
2018-08-20T09:37:44.370Z,37.58
2018-08-20T09:40:13.651Z,37.18
2018-08-20T09:42:43.249Z,37.18
2018-08-20T09:45:12.067Z,35.84
2018-08-20T09:47:42.302Z,36.08
2018-08-20T09:50:14.754Z,35.36
2018-08-20T09:52:43.663Z,35.09
2018-08-20T09:55:12.262Z,34.31
2018-08-20T09:57:41.142Z,34.76
2018-08-20T10:00:45.823Z,34.96
2018-08-20T10:03:15.370Z,34.71
2018-08-20T10:05:44.239Z,35.62
2018-08-20T10:08:13.585Z,34.92
2018-08-20T10:10:42.239Z,35.41
2018-08-20T10:13:10.944Z,35.29
2018-08-20T10:15:39.616Z,35.95
2018-08-20T10:18:08.718Z,34.47
2018-08-20T10:20:37.416Z,34.43
2018-08-20T10:23:06.189Z,34.04
2018-08-20T10:25:34.918Z,34.06
2018-08-20T10:28:03.571Z,34.10
2018-08-20T10:30:32.232Z,33.09
2018-08-20T10:33:00.930Z,33.17
2018-08-20T10:35:29.499Z,33.08
2018-08-20T10:37:58.240Z,33.51
2018-08-20T10:40:26.824Z,33.73
2018-08-20T10:42:55.459Z,32.20
2018-08-20T10:45:29.284Z,33.62
2018-08-20T10:47:57.911Z,33.30
2018-08-20T10:50:26.578Z,32.47
2018-08-20T10:52:55.214Z,32.78
2018-08-20T10:55:23.817Z,31.75
2018-08-20T10:57:52.501Z,31.78
2018-08-20T11:00:21.170Z,31.18
2018-08-20T11:02:50.435Z,30.78
2018-08-20T11:05:19.751Z,30.58
2018-08-20T11:07:48.441Z,31.12
2018-08-20T11:10:17.180Z,30.48
2018-08-20T11:12:45.752Z,30.62
2018-08-20T11:15:14.386Z,30.55
2018-08-20T11:17:43.241Z,30.02
2018-08-20T11:20:14.543Z,30.59
2018-08-20T11:22:43.388Z,30.88
2018-08-20T11:25:12.791Z,31.43
2018-08-20T11:27:41.522Z,30.36
2018-08-20T11:30:11.665Z,29.76
2018-08-20T11:32:40.305Z,29.20
2018-08-20T11:35:10.046Z,29.70
2018-08-20T11:37:38.726Z,29.03
2018-08-20T11:40:08.132Z,29.39
2018-08-20T11:42:37.582Z,30.50
2018-08-20T11:45:08.035Z,29.75
2018-08-20T11:47:36.667Z,29.15
2018-08-20T11:50:06.389Z,29.04
2018-08-20T11:52:35.115Z,29.00
2018-08-20T11:55:03.775Z,29.16
2018-08-20T11:57:33.056Z,28.81
2018-08-20T12:00:01.811Z,28.78
2018-08-20T12:02:30.807Z,28.98
2018-08-20T12:04:59.900Z,28.71
2018-08-20T12:07:28.993Z,28.90
2018-08-20T12:09:58.071Z,29.14
2018-08-20T12:12:27.509Z,29.36
2018-08-20T12:14:57.083Z,29.23
2018-08-20T12:17:26.659Z,29.23
2018-08-20T12:19:56.058Z,28.62
2018-08-20T12:22:24.648Z,28.17
2018-08-20T12:24:53.382Z,28.49
2018-08-20T12:27:21.944Z,29.29
2018-08-20T12:29:50.647Z,28.54
2018-08-20T12:32:19.960Z,27.29
2018-08-20T12:34:48.556Z,27.58
2018-08-20T12:37:17.146Z,26.66
2018-08-20T12:39:46.017Z,25.00
2018-08-20T12:42:14.654Z,24.52
2018-08-20T12:44:43.954Z,21.48
2018-08-20T12:47:12.635Z,20.65
2018-08-20T12:49:42.139Z,20.75
2018-08-20T12:52:11.058Z,21.12
2018-08-20T12:54:40.617Z,19.48
2018-08-20T12:57:09.526Z,18.92
2018-08-20T12:59:38.972Z,18.57
2018-08-20T13:02:07.616Z,17.66
2018-08-20T13:04:36.854Z,17.13
2018-08-20T13:07:06.375Z,17.78
2018-08-20T13:09:35.079Z,18.93
2018-08-20T13:12:03.696Z,18.15
2018-08-20T13:14:32.347Z,18.78
2018-08-20T13:17:01.540Z,19.74
2018-08-20T13:19:30.954Z,20.53
2018-08-20T13:21:59.549Z,21.41
2018-08-20T13:24:28.252Z,20.31
2018-08-20T13:26:56.869Z,20.04
2018-08-20T13:29:25.702Z,19.10
2018-08-20T13:31:55.191Z,18.47
2018-08-20T13:34:24.018Z,17.23
2018-08-20T13:36:53.548Z,18.01
2018-08-20T13:39:22.209Z,17.88
2018-08-20T13:41:50.916Z,18.63
2018-08-20T13:44:19.568Z,19.99
2018-08-20T13:46:48.329Z,20.14
2018-08-20T13:49:16.962Z,21.50
2018-08-20T13:51:45.725Z,21.08
2018-08-20T13:54:14.330Z,20.13
2018-08-20T13:56:43.402Z,20.97
2018-08-20T13:59:12.584Z,21.91
2018-08-20T14:01:41.769Z,22.75
2018-08-20T14:04:10.385Z,23.58
2018-08-20T14:06:39.245Z,24.07
2018-08-20T14:09:09.593Z,24.71
2018-08-20T14:11:38.310Z,23.48
2018-08-20T14:14:07.498Z,22.56
2018-08-20T14:16:36.177Z,22.17
2018-08-20T14:19:05.250Z,20.46
2018-08-20T14:21:33.837Z,21.36
2018-08-20T14:24:02.530Z,21.46
2018-08-20T14:26:31.975Z,20.11
2018-08-20T14:29:00.644Z,19.87
2018-08-20T14:31:29.549Z,19.58
2018-08-20T14:33:58.215Z,20.01
2018-08-20T14:36:27.010Z,20.12
2018-08-20T14:38:55.733Z,20.30
2018-08-20T14:41:24.795Z,20.71
2018-08-20T14:43:53.900Z,21.92
2018-08-20T14:46:23.660Z,21.95
2018-08-20T14:48:53.710Z,23.95
2018-08-20T14:51:22.477Z,23.76
2018-08-20T14:53:51.468Z,24.56
2018-08-20T14:56:20.898Z,24.62
2018-08-20T14:58:49.552Z,25.01
2018-08-20T15:01:18.380Z,24.87
2018-08-20T15:03:47.293Z,25.12
2018-08-20T15:06:15.953Z,24.74
2018-08-20T15:08:44.587Z,25.65
2018-08-20T15:11:13.379Z,26.00
2018-08-20T15:13:42.036Z,26.98
2018-08-20T15:16:10.706Z,27.40
2018-08-20T15:18:39.318Z,27.57
2018-08-20T15:21:07.944Z,28.21
2018-08-20T15:23:36.589Z,27.87
2018-08-20T15:26:05.226Z,27.75
2018-08-20T15:28:33.807Z,27.46
2018-08-20T15:31:02.479Z,27.61
2018-08-20T15:33:31.504Z,27.76
2018-08-20T15:36:00.285Z,28.11
2018-08-20T15:38:28.961Z,28.26
2018-08-20T15:40:57.683Z,28.41
2018-08-20T15:43:26.393Z,29.45
2018-08-20T15:45:55.375Z,29.41
2018-08-20T15:48:24.008Z,29.20
2018-08-20T15:50:52.652Z,28.98
2018-08-20T15:53:21.499Z,29.56
2018-08-20T15:55:50.236Z,29.95
2018-08-20T15:58:18.946Z,29.60
2018-08-20T16:00:48.295Z,28.89
2018-08-20T16:03:17.212Z,30.12
2018-08-20T16:05:45.861Z,30.68
2018-08-20T16:08:15.178Z,30.67
2018-08-20T16:10:43.980Z,31.01
2018-08-20T16:13:12.578Z,31.80
2018-08-20T16:15:41.594Z,31.56
2018-08-20T16:18:10.236Z,31.18
2018-08-20T16:20:39.056Z,31.58
2018-08-20T16:23:08.672Z,31.65
2018-08-20T16:25:37.760Z,31.82
2018-08-20T16:28:10.726Z,31.96
2018-08-20T16:30:39.381Z,32.16
2018-08-20T16:33:08.243Z,33.42
2018-08-20T16:35:36.897Z,33.62
2018-08-20T16:38:05.857Z,33.18
2018-08-20T16:40:34.617Z,33.83
2018-08-20T16:43:04.545Z,34.28
2018-08-20T16:45:33.367Z,34.51
2018-08-20T16:48:02.689Z,34.39
2018-08-20T16:50:32.013Z,34.75
2018-08-20T16:53:00.835Z,35.55
2018-08-20T16:55:29.636Z,35.20
2018-08-20T16:57:58.623Z,35.86
2018-08-20T17:00:28.029Z,35.74
2018-08-20T17:02:57.376Z,35.86
2018-08-20T17:05:33.218Z,36.25
2018-08-20T17:08:02.350Z,35.87
2018-08-20T17:10:30.972Z,36.83
2018-08-20T17:12:59.838Z,36.11
2018-08-20T17:15:29.064Z,36.73
2018-08-20T17:17:57.721Z,36.55
2018-08-20T17:20:26.578Z,37.06
2018-08-20T17:23:05.591Z,36.81
2018-08-20T17:25:34.280Z,36.91
2018-08-20T17:28:03.462Z,37.49
2018-08-20T17:30:32.275Z,36.59
2018-08-20T17:33:00.887Z,37.43
2018-08-20T17:35:29.607Z,37.04
2018-08-20T17:38:01.632Z,37.40
2018-08-20T17:40:30.401Z,37.95
2018-08-20T17:42:59.225Z,37.35
2018-08-20T17:45:28.833Z,38.30
2018-08-20T17:47:57.546Z,38.35
2018-08-20T17:50:41.342Z,37.84
2018-08-20T17:53:11.801Z,37.63
2018-08-20T17:55:41.564Z,37.70
2018-08-20T17:58:10.601Z,37.59
2018-08-20T18:00:44.942Z,38.54
2018-08-20T18:03:22.207Z,38.53
2018-08-20T18:05:57.144Z,38.06
2018-08-20T18:08:27.185Z,38.21
2018-08-20T18:10:55.985Z,38.45
2018-08-20T18:13:42.351Z,39.72
2018-08-20T18:16:12.266Z,39.33
2018-08-20T18:18:42.469Z,39.24
2018-08-20T18:21:11.217Z,39.94
2018-08-20T18:23:40.669Z,39.54
2018-08-20T18:26:09.544Z,39.51
2018-08-20T18:28:45.330Z,40.13
2018-08-20T18:31:21.371Z,39.27
2018-08-20T18:33:50.169Z,39.98
2018-08-20T18:36:22.840Z,39.80
2018-08-20T18:38:55.349Z,39.79
2018-08-20T18:42:33.546Z,39.92
2018-08-20T18:45:02.413Z,40.30
2018-08-20T18:47:31.106Z,40.07
2018-08-20T18:50:00.083Z,39.94
2018-08-20T18:52:29.821Z,40.48
2018-08-20T18:54:59.401Z,40.23
2018-08-20T18:57:32.581Z,40.89
2018-08-20T19:00:03.036Z,41.11
2018-08-20T19:02:38.286Z,40.26
2018-08-20T19:05:09.321Z,40.84
2018-08-20T19:07:38.092Z,40.61
2018-08-20T19:10:10.464Z,40.67
2018-08-20T19:12:39.191Z,41.42
2018-08-20T19:15:45.083Z,40.92
2018-08-20T19:18:17.939Z,40.56
2018-08-20T19:20:48.503Z,40.76
2018-08-20T19:23:21.258Z,41.04
2018-08-20T19:25:56.854Z,41.14
2018-08-20T19:28:25.938Z,41.46
2018-08-20T19:30:55.929Z,41.39
2018-08-20T19:33:27.127Z,41.57
2018-08-20T19:35:56.588Z,40.95
2018-08-20T19:38:25.779Z,41.03
2018-08-20T19:41:03.908Z,41.34
2018-08-20T19:43:48.170Z,41.64
2018-08-20T19:46:28.116Z,41.82
2018-08-20T19:49:02.115Z,41.83
2018-08-20T19:51:32.229Z,41.82
2018-08-20T19:54:00.977Z,42.55
2018-08-20T19:56:29.848Z,42.26
2018-08-20T19:58:58.537Z,43.00
2018-08-20T20:01:27.330Z,42.45
2018-08-20T20:03:56.129Z,43.14
2018-08-20T20:06:25.711Z,43.70
2018-08-20T20:08:54.393Z,43.56
2018-08-20T20:11:28.090Z,43.74
2018-08-20T20:14:01.692Z,43.46
2018-08-20T20:16:40.791Z,44.13
2018-08-20T20:19:10.143Z,44.32
2018-08-20T20:21:39.201Z,44.30
2018-08-20T20:24:08.547Z,44.25
2018-08-20T20:26:37.372Z,44.57
2018-08-20T20:29:07.756Z,44.60
2018-08-20T20:31:37.074Z,45.14
2018-08-20T20:34:05.832Z,44.80
2018-08-20T20:36:35.391Z,44.94
2018-08-20T20:39:05.612Z,45.28
2018-08-20T20:41:34.437Z,45.02
2018-08-20T20:44:04.018Z,45.27
2018-08-20T20:46:32.753Z,45.64
2018-08-20T20:49:01.493Z,46.35
2018-08-20T20:51:30.283Z,46.16
2018-08-20T20:53:59.106Z,46.52
2018-08-20T20:56:27.752Z,46.85
2018-08-20T20:58:56.525Z,46.91
2018-08-20T21:01:25.836Z,46.35
2018-08-20T21:03:54.551Z,46.87
2018-08-20T21:06:23.160Z,47.01
2018-08-20T21:08:52.448Z,47.71
2018-08-20T21:11:22.278Z,46.93
2018-08-20T21:13:50.950Z,47.43
2018-08-20T21:16:23.489Z,47.11
2018-08-20T21:18:53.627Z,47.54
2018-08-20T21:21:22.876Z,47.43
2018-08-20T21:23:51.575Z,47.62
2018-08-20T21:26:20.308Z,47.84
2018-08-20T21:28:50.158Z,47.76
2018-08-20T21:31:20.252Z,48.19
2018-08-20T21:33:49.570Z,47.86
2018-08-20T21:36:18.176Z,47.39
2018-08-20T21:38:46.840Z,47.74
2018-08-20T21:41:15.468Z,47.57
2018-08-20T21:43:47.853Z,48.19
2018-08-20T21:46:16.947Z,48.16
2018-08-20T21:48:46.062Z,48.58
2018-08-20T21:51:17.171Z,48.44
2018-08-20T21:53:45.787Z,48.16
2018-08-20T21:56:14.818Z,48.59
2018-08-20T21:58:44.266Z,48.44
2018-08-20T22:01:14.464Z,48.62
2018-08-20T22:03:43.529Z,49.20
2018-08-20T22:06:12.830Z,48.83
2018-08-20T22:08:41.943Z,49.03
2018-08-20T22:11:11.509Z,49.40
2018-08-20T22:13:40.257Z,49.71
2018-08-20T22:16:18.506Z,49.69
2018-08-20T22:18:49.537Z,50.36
2018-08-20T22:21:18.835Z,50.42
2018-08-20T22:23:47.945Z,50.09
2018-08-20T22:26:18.330Z,50.66
2018-08-20T22:28:48.967Z,51.44
2018-08-20T22:31:17.785Z,50.48
2018-08-20T22:33:55.571Z,50.65
2018-08-20T22:36:24.892Z,50.80
2018-08-20T22:38:55.900Z,51.38
2018-08-20T22:41:25.613Z,51.29
2018-08-20T22:43:54.388Z,51.95
2018-08-20T22:46:24.279Z,50.95
2018-08-20T22:48:54.417Z,51.38
2018-08-20T22:51:24.559Z,51.93
2018-08-20T22:53:58.183Z,51.69
2018-08-20T22:56:29.301Z,52.16
2018-08-20T22:59:00.279Z,51.87
2018-08-20T23:01:29.050Z,52.54
2018-08-20T23:03:57.921Z,52.70
2018-08-20T23:06:27.343Z,52.43
2018-08-20T23:08:56.008Z,52.75
2018-08-20T23:11:40.006Z,53.23
2018-08-20T23:14:10.496Z,53.28
2018-08-20T23:16:39.632Z,53.56
2018-08-20T23:19:08.667Z,53.61
2018-08-20T23:21:41.335Z,54.05
2018-08-20T23:24:10.749Z,53.69
2018-08-20T23:26:39.452Z,53.42
2018-08-20T23:29:08.296Z,53.71
2018-08-20T23:31:37.213Z,53.20
2018-08-20T23:34:08.627Z,53.21
2018-08-20T23:36:37.552Z,53.77
2018-08-20T23:39:09.222Z,53.88
2018-08-20T23:41:38.019Z,53.35
2018-08-20T23:44:07.284Z,53.46
2018-08-20T23:46:39.301Z,53.70
2018-08-20T23:49:07.940Z,53.63
2018-08-20T23:51:36.592Z,53.89
2018-08-20T23:54:05.310Z,53.96
2018-08-20T23:56:33.950Z,54.33
2018-08-20T23:59:02.528Z,54.19
